Custom Search

Airport METAR Reports

 

YMAV - Avalon Airport, Australia
Distance from station: 0 0km
Updated: 24/07/2017 16:30
Clear
Clear
 Wind from W
Wind: W 15 km/h
Temperature: 14°C
Dew Point: 10°C
Humidity: 77%
Barometer: 1017 hPa
Clouds: Clear
Visibility: 10 km
2017/07/24 06:30 YMAV 240630Z AUTO 28008KT 9999 // NCD 14/10 Q1017 RF00.0/000.0
YMML - Melbourne Intl A, Australia
Distance from station: NE 50km
Updated: 24/07/2017 16:30
Partly cloudy
Partly cloudy
 Wind from NW
Wind: NW 20 km/h
Temperature: 13°C
Dew Point: 6°C
Humidity: 63%
Barometer: 1018 hPa
Clouds: Partly cloudy
Visibility: 10 km
Cloud details: Few Clouds 1189 m
Partly cloudy 1981 m
2017/07/24 06:30 YMML 240630Z 32011KT 9999 FEW039 SCT065 13/06 Q1018 NOSIG
YMEN - Melbourne/Essend, Australia
Distance from station: NE 51km
Updated: 24/07/2017 16:00
Partly cloudy
Partly cloudy
 Wind from NW
Wind: NW 13 km/h
Temperature: 15°C
Dew Point: 7°C
Humidity: 59%
Barometer: 1018 hPa
Clouds: Partly cloudy
Visibility: 10 km
Cloud details: Partly cloudy 1402 m
Partly cloudy 1615 m
2017/07/24 06:00 YMEN 240600Z AUTO 31007KT 9999 // SCT046 SCT053 15/07 Q1018
 
YWGT - Wangaratta Arp, Australia
Distance from station: NE 241km
Updated: 24/07/2017 16:00
Mostly cloudy
Mostly cloudy
 Wind from S
Wind: S 2 km/h
Temperature: 11°C
Dew Point: 8°C
Humidity: 82%
Barometer: 1021 hPa
Clouds: Mostly cloudy
Visibility: 10 km
Cloud details: Mostly cloudy 975 m
2017/07/24 06:00 YWGT 240600Z AUTO 18001KT 9999 // BKN032 11/08 Q1021
YMAY - Albury Airport, Australia
Distance from station: NE 308km
Updated: 24/07/2017 16:30
Overcast
Overcast
 Wind from W
Wind: W 9 km/h
Temperature: 10°C
Wind Chill: 9°C
Dew Point: 7°C
Humidity: 82%
Barometer: 1021 hPa
Clouds: Overcast
Visibility: 10 km
Cloud details: Mostly cloudy 518 m
Overcast 732 m
2017/07/24 06:30 YMAY 240630Z AUTO 27005KT 9999 // BKN017 OVC024 10/07 Q1021
YMTG - Mount Gambier, Australia
Distance from station: W 326km
Updated: 24/07/2017 16:00
Mostly cloudy
Mostly cloudy
 Wind from NNW
Wind: NNW 19 km/h
Temperature: 13°C
Dew Point: 10°C
Humidity: 82%
Barometer: 1017 hPa
Clouds: Mostly cloudy
Visibility: 10 km
Cloud details: Partly cloudy 823 m
Partly cloudy 975 m
Mostly cloudy 1585 m
2017/07/24 06:00 YMTG 240600Z AUTO 33010KT 9999 // SCT027 SCT032 BKN052 13/10 Q1017
 
YNAR - Narrandera, Australia
Distance from station: NNE 413km
Updated: 24/07/2017 16:00

 Wind from WNW
Wind: WNW 2 km/h
Temperature: 15°C
Dew Point: 7°C
Humidity: 59%
Barometer: 1022 hPa
2017/07/24 06:00 YNAR 240600Z AUTO 29001KT //// // ////// 15/07 Q1022
YSWG - Wagga Wagga(Cv/M, Australia
Distance from station: NE 418km
Updated: 24/07/2017 16:00
Mostly cloudy
Mostly cloudy
 Wind from W
Wind: W 13 km/h
Temperature: 12°C
Dew Point: 8°C
Humidity: 77%
Barometer: 1021 hPa
Clouds: Mostly cloudy
Visibility: 10 km
Cloud details: Few Clouds 610 m
Mostly cloudy 1372 m
2017/07/24 06:00 YSWG 240600Z 26007KT 9999 FEW020 BKN045 12/08 Q1021
YCOM - Cooma Snowy Mtns, Australia
Distance from station: ENE 441km
Updated: 24/07/2017 16:00
Clear
Clear
 Wind from SW
Wind: SW 26 km/h
Temperature: 9°C
Wind Chill: 6°C
Dew Point: -1°C
Humidity: 50%
Barometer: 1018 hPa
Clouds: Clear
Visibility: 10 km
2017/07/24 06:00 YCOM 240600Z AUTO 23014KT 9999 // NCD 09/M01 Q1018
 
YGTH - Griffith Arpt, Australia
Distance from station: NNE 444km
Updated: 24/07/2017 16:00
Partly cloudy
Partly cloudy
 Wind from W
Wind: W 15 km/h
Temperature: 16°C
Dew Point: 6°C
Humidity: 52%
Barometer: 1021 hPa
Clouds: Partly cloudy
Visibility: 10 km
Cloud details: Partly cloudy 1890 m
2017/07/24 06:00 YGTH 240600Z AUTO 27008KT 9999 // SCT062 16/06 Q1021
YMLT - Launceston Airpo, Australia
Distance from station: SSE 451km
Updated: 24/07/2017 16:30
Clear
Clear
 Wind from NW
Wind: NW 28 km/h
Temperature: 9°C
Wind Chill: 6°C
Dew Point: 1°C
Humidity: 58%
Barometer: 1012 hPa
Clouds: Clear
Visibility: 10 km
2017/07/24 06:30 YMLT 240630Z AUTO 32015KT 9999 // NCD 09/01 Q1012 RF00.0/000.0
YMIA - Mildura Arpt, Australia
Distance from station: NNW 474km
Updated: 24/07/2017 16:00
Clear
Clear
 Wind from NW
Wind: NW 15 km/h
Temperature: 19°C
Dew Point: 4°C
Humidity: 37%
Barometer: 1020 hPa
Clouds: Clear
Visibility: 10 km
2017/07/24 06:00 YMIA 240600Z AUTO 32008KT 9999 // NCD 19/04 Q1020
 
YMER - Merimbula Arpt, Australia
Distance from station: ENE 494km
Updated: 24/07/2017 16:00
Clear
Clear
 Wind from NE
Wind: NE 9 km/h
Temperature: 15°C
Dew Point: 7°C
Humidity: 59%
Barometer: 1017 hPa
Clouds: Clear
Visibility: 10 km
2017/07/24 06:00 YMER 240600Z AUTO 05005KT 9999 // NCD 15/07 Q1017
YSCB - Canberra (civ/Mi, Australia
Distance from station: NE 518km
Updated: 24/07/2017 16:30
Few Clouds
Few Clouds
 Wind from NW
Wind: NW 28 km/h
Temperature: 11°C
Dew Point: 2°C
Humidity: 54%
Barometer: 1019 hPa
Clouds: Few Clouds
Visibility: 10 km
Cloud details: Few Clouds 1524 m
2017/07/24 06:30 YSCB 240630Z 31015KT 9999 FEW050 11/02 Q1019 NOSIG
YMHB - Hobart/Tasmania, Australia
Distance from station: SSE 590km
Updated: 24/07/2017 16:30
Few Clouds
Few Clouds
 Wind from W
Wind: W 35 km/h
Temperature: 10°C
Wind Chill: 6°C
Dew Point: -1°C
Humidity: 47%
Barometer: 1010 hPa
Clouds: Few Clouds
Visibility: 10 km
Cloud details: Few Clouds 1372 m
2017/07/24 06:30 YMHB 240630Z 28019KT 9999 FEW045 10/M01 Q1010